Time;durP1;ratioP1;P1;durP2;ratioP2;P2;SDS_P1;SDS_P2;PMS_P1;PMS_P2;Temp;Humidity;BMP_temperature;BMP_pressure;BME280_temperature;BME280_humidity;BME280_pressure;Samples;Min_cycle;Max_cycle;Signal;HPM_P1;HPM_P2
2023/10/05 00:02:13;;;;;;;3.80;2.30;;;5.20;99.90;;;;;;8346695;28;20025;-82
2023/10/05 00:06:14;;;;;;;2.92;1.90;;;5.00;99.90;;;;;;8359361;28;20041;-82
2023/10/05 00:10:15;;;;;;;1.95;1.40;;;5.00;99.90;;;;;;8353127;28;20055;-83
2023/10/05 00:14:16;;;;;;;2.33;1.70;;;4.90;99.90;;;;;;8362896;28;20497;-80
2023/10/05 00:18:19;;;;;;;3.45;1.63;;;4.70;99.90;;;;;;8362387;28;20052;-82
2023/10/05 00:22:21;;;;;;;2.97;1.70;;;4.70;99.90;;;;;;8352964;28;20045;-82
2023/10/05 00:26:23;;;;;;;2.70;1.60;;;4.70;99.90;;;;;;8350587;28;20031;-81
2023/10/05 00:30:24;;;;;;;3.10;2.08;;;4.80;99.90;;;;;;8345084;28;20061;-82
2023/10/05 00:34:28;;;;;;;4.80;1.70;;;4.90;99.90;;;;;;8359887;28;20021;-82
2023/10/05 00:38:29;;;;;;;2.80;1.83;;;4.90;99.90;;;;;;8361325;28;20027;-82
2023/10/05 00:42:29;;;;;;;3.50;2.20;;;5.20;99.90;;;;;;8354770;28;20473;-82
2023/10/05 00:46:31;;;;;;;1.83;1.58;;;5.10;99.90;;;;;;8360457;28;20033;-82
2023/10/05 00:50:34;;;;;;;2.72;1.65;;;4.80;99.90;;;;;;8332977;28;20162;-83
2023/10/05 00:54:35;;;;;;;2.60;1.52;;;4.60;99.90;;;;;;8355254;28;20025;-83
2023/10/05 00:58:42;;;;;;;2.15;1.60;;;4.50;99.90;;;;;;8346269;28;20029;-82
2023/10/05 01:03:10;;;;;;;3.42;1.90;;;4.40;99.90;;;;;;8355314;28;20021;-82
2023/10/05 01:07:49;;;;;;;5.97;1.95;;;4.30;99.90;;;;;;8364570;28;20079;-83
2023/10/05 01:11:43;;;;;;;3.47;1.80;;;4.20;99.90;;;;;;8358972;28;20496;-83
2023/10/05 01:15:46;;;;;;;2.95;1.90;;;4.10;99.90;;;;;;8359522;28;20405;-82
2023/10/05 01:19:59;;;;;;;4.47;2.15;;;4.40;99.90;;;;;;8348170;28;20029;-82
2023/10/05 01:23:59;;;;;;;4.72;2.25;;;4.30;99.90;;;;;;8353891;28;20504;-82
2023/10/05 01:28:01;;;;;;;2.95;1.77;;;4.50;99.90;;;;;;8353750;28;20029;-82
2023/10/05 01:32:02;;;;;;;3.90;2.45;;;4.50;99.90;;;;;;8350631;28;20575;-81
2023/10/05 01:36:06;;;;;;;3.22;2.05;;;4.50;99.90;;;;;;8364717;28;20025;-81
2023/10/05 01:44:19;;;;;;;3.22;2.05;;;4.40;99.90;;;;;;8364867;28;20036;-82
2023/10/05 01:48:26;;;;;;;3.20;1.92;;;4.50;99.90;;;;;;8362124;28;20021;-80
2023/10/05 01:52:27;;;;;;;3.40;2.08;;;4.60;99.90;;;;;;8339357;28;20112;-83
2023/10/05 01:56:28;;;;;;;3.83;2.53;;;4.60;99.90;;;;;;8365977;28;20021;-83
2023/10/05 02:00:31;;;;;;;4.75;2.53;;;4.60;99.90;;;;;;8350683;28;20052;-82
2023/10/05 02:04:34;;;;;;;4.57;2.72;;;4.50;99.90;;;;;;8352660;28;20595;-81
2023/10/05 02:08:35;;;;;;;2.80;1.95;;;4.50;99.90;;;;;;8352217;28;20021;-81
2023/10/05 02:12:36;;;;;;;3.45;2.30;;;4.60;99.90;;;;;;8364797;28;20668;-82
2023/10/05 02:16:37;;;;;;;4.88;2.30;;;4.50;99.90;;;;;;8348591;28;21264;-81
2023/10/05 02:20:42;;;;;;;2.50;1.92;;;4.40;99.90;;;;;;8359636;28;20029;-81
2023/10/05 02:24:42;;;;;;;3.00;1.88;;;4.40;99.90;;;;;;8358678;28;20037;-81
2023/10/05 02:28:43;;;;;;;2.80;2.10;;;4.30;99.90;;;;;;8363812;28;20024;-82
2023/10/05 02:32:44;;;;;;;3.08;2.17;;;4.40;99.90;;;;;;8352527;28;20032;-81
2023/10/05 02:36:45;;;;;;;3.58;2.47;;;4.20;99.90;;;;;;8348799;28;20573;-82
2023/10/05 02:40:54;;;;;;;3.10;2.15;;;4.10;99.90;;;;;;8362887;28;20029;-81
2023/10/05 02:44:56;;;;;;;3.13;1.92;;;4.10;99.90;;;;;;8366609;28;20067;-80
2023/10/05 02:48:56;;;;;;;3.78;2.40;;;4.00;99.90;;;;;;8359024;28;20037;-83
2023/10/05 02:52:59;;;;;;;2.92;1.88;;;4.00;99.90;;;;;;8343786;28;20047;-82
2023/10/05 02:56:59;;;;;;;2.75;2.03;;;3.90;99.90;;;;;;8347677;28;20108;-83
2023/10/05 03:01:00;;;;;;;3.03;2.03;;;3.80;99.90;;;;;;8326499;28;20404;-81
2023/10/05 03:05:05;;;;;;;3.08;1.70;;;3.80;99.90;;;;;;8353225;28;20029;-83
2023/10/05 03:09:09;;;;;;;4.72;2.10;;;3.80;99.90;;;;;;8364452;28;20164;-80
2023/10/05 03:13:13;;;;;;;4.18;2.30;;;3.70;99.90;;;;;;8359605;28;20025;-81
2023/10/05 03:17:18;;;;;;;3.05;2.08;;;3.80;99.90;;;;;;8346033;28;20033;-83
2023/10/05 03:21:21;;;;;;;4.85;2.50;;;3.80;99.90;;;;;;8351946;28;20031;-82
2023/10/05 03:25:22;;;;;;;4.18;2.35;;;3.80;99.90;;;;;;8362607;28;20029;-80
2023/10/05 03:29:24;;;;;;;4.13;2.47;;;4.00;99.90;;;;;;8344278;28;20029;-82
2023/10/05 03:33:27;;;;;;;3.20;2.20;;;3.90;99.90;;;;;;8361629;28;20479;-82
2023/10/05 03:37:31;;;;;;;3.35;2.38;;;3.80;99.90;;;;;;8361457;28;20025;-82
2023/10/05 03:41:32;;;;;;;3.65;2.13;;;3.80;99.90;;;;;;8352243;28;20476;-81
2023/10/05 03:45:32;;;;;;;5.18;2.90;;;3.60;99.90;;;;;;8341996;28;20029;-83
2023/10/05 03:49:33;;;;;;;3.67;2.42;;;3.60;99.90;;;;;;8343472;28;20036;-81
2023/10/05 03:53:34;;;;;;;5.45;2.60;;;3.70;99.90;;;;;;8356309;28;20024;-81
2023/10/05 03:57:34;;;;;;;3.63;2.42;;;3.70;99.90;;;;;;8360736;28;20055;-80
2023/10/05 04:01:35;;;;;;;4.55;2.45;;;3.70;99.90;;;;;;8331578;28;20029;-81
2023/10/05 04:05:39;;;;;;;4.03;2.40;;;3.70;99.90;;;;;;8343449;28;20037;-83
2023/10/05 04:09:39;;;;;;;3.53;2.08;;;3.60;99.90;;;;;;8345003;28;20025;-83
2023/10/05 04:13:40;;;;;;;3.53;2.00;;;3.60;99.90;;;;;;8345368;28;20432;-83
2023/10/05 04:17:43;;;;;;;7.10;2.60;;;3.80;99.90;;;;;;8344698;28;20079;-83
2023/10/05 04:21:45;;;;;;;5.47;2.42;;;3.80;99.90;;;;;;8362699;28;20035;-83
2023/10/05 04:25:47;;;;;;;2.78;1.90;;;3.80;99.90;;;;;;8364788;28;20151;-84
2023/10/05 04:29:48;;;;;;;3.47;2.38;;;3.90;99.90;;;;;;8353208;28;20052;-83
2023/10/05 04:33:54;;;;;;;4.75;2.58;;;4.00;99.90;;;;;;8353229;28;20091;-83
2023/10/05 04:37:56;;;;;;;3.92;2.88;;;4.00;99.90;;;;;;8344042;28;20110;-83
2023/10/05 04:42:04;;;;;;;3.40;2.83;;;4.10;99.90;;;;;;8345544;28;20033;-81
2023/10/05 04:46:05;;;;;;;4.20;2.65;;;4.20;99.90;;;;;;8352355;28;20025;-83
2023/10/05 04:50:06;;;;;;;4.13;2.70;;;4.30;99.90;;;;;;8354383;28;20140;-83
2023/10/05 04:54:11;;;;;;;4.28;2.70;;;4.30;99.90;;;;;;8362058;28;20021;-83
2023/10/05 04:58:22;;;;;;;4.80;3.03;;;4.30;99.90;;;;;;8342286;28;20032;-82
2023/10/05 05:02:35;;;;;;;5.38;2.58;;;4.30;99.90;;;;;;8351376;28;20025;-82
2023/10/05 05:06:36;;;;;;;3.17;2.20;;;4.30;99.90;;;;;;8367697;28;20041;-83
2023/10/05 05:10:37;;;;;;;3.60;2.47;;;4.30;99.90;;;;;;8356115;28;20086;-83
2023/10/05 05:14:43;;;;;;;4.20;2.50;;;4.30;99.90;;;;;;8361793;28;20067;-82
2023/10/05 05:18:44;;;;;;;5.28;2.25;;;4.30;99.90;;;;;;8378206;28;20497;-84
2023/10/05 05:22:46;;;;;;;4.25;2.45;;;4.30;99.90;;;;;;8355911;28;20028;-84
2023/10/05 05:26:47;;;;;;;6.00;2.70;;;4.30;99.90;;;;;;8372005;28;20040;-83
2023/10/05 05:30:47;;;;;;;3.58;2.47;;;4.30;99.90;;;;;;8354449;28;20041;-83
2023/10/05 05:34:51;;;;;;;5.35;2.95;;;4.40;99.90;;;;;;8373386;28;20028;-84
2023/10/05 05:38:51;;;;;;;4.70;2.30;;;4.60;99.90;;;;;;8361865;28;20028;-83
2023/10/05 05:42:54;;;;;;;4.75;2.10;;;4.70;99.90;;;;;;8358340;28;20033;-82
2023/10/05 05:46:59;;;;;;;6.10;2.80;;;4.90;99.90;;;;;;8370834;28;20025;-83
2023/10/05 05:51:05;;;;;;;5.63;2.70;;;5.00;99.90;;;;;;8336253;28;20052;-84
2023/10/05 05:55:10;;;;;;;2.95;1.92;;;5.10;99.90;;;;;;8352972;28;20025;-83
2023/10/05 05:59:13;;;;;;;4.03;2.60;;;5.30;99.90;;;;;;8366078;28;20028;-84
2023/10/05 06:03:14;;;;;;;4.10;2.50;;;5.40;99.90;;;;;;8369023;28;20035;-85
2023/10/05 06:07:15;;;;;;;5.38;3.45;;;5.60;99.90;;;;;;8369544;28;20063;-85
2023/10/05 06:11:16;;;;;;;4.80;2.83;;;5.70;99.90;;;;;;8370071;28;20013;-84
2023/10/05 06:15:17;;;;;;;5.00;3.58;;;5.90;99.90;;;;;;8369611;28;20421;-84
2023/10/05 06:19:17;;;;;;;6.57;3.50;;;6.00;99.90;;;;;;8364793;28;20020;-85
2023/10/05 06:23:18;;;;;;;15.60;7.97;;;6.10;99.90;;;;;;8354446;28;20036;-86
2023/10/05 06:27:18;;;;;;;8.77;4.30;;;6.10;99.90;;;;;;8352756;28;20507;-86
2023/10/05 06:31:19;;;;;;;7.25;3.88;;;6.20;99.90;;;;;;8345772;28;20021;-85
2023/10/05 06:35:20;;;;;;;7.43;3.50;;;6.40;99.90;;;;;;8353010;28;20095;-86
2023/10/05 06:39:27;;;;;;;5.35;3.97;;;6.60;99.90;;;;;;8338461;28;20025;-86
2023/10/05 06:43:27;;;;;;;7.55;3.70;;;6.80;99.90;;;;;;8353012;28;20400;-86
2023/10/05 06:47:37;;;;;;;6.68;3.50;;;7.00;99.90;;;;;;8361833;28;20036;-84
2023/10/05 06:51:43;;;;;;;5.80;3.43;;;7.00;99.90;;;;;;8344611;28;20025;-84
2023/10/05 06:55:43;;;;;;;8.30;3.80;;;7.10;99.90;;;;;;8345175;28;20021;-85
2023/10/05 06:59:44;;;;;;;5.47;3.53;;;7.10;99.90;;;;;;8354184;28;20044;-85
2023/10/05 07:03:44;;;;;;;7.20;3.38;;;7.10;99.90;;;;;;8348999;28;20033;-84
2023/10/05 07:07:45;;;;;;;6.28;4.45;;;7.10;99.90;;;;;;8362979;28;20478;-85
2023/10/05 07:11:46;;;;;;;6.43;4.25;;;7.80;99.90;;;;;;8372263;28;20057;-84
2023/10/05 07:15:46;;;;;;;6.25;4.38;;;8.20;99.90;;;;;;8394786;28;20029;-85
2023/10/05 07:19:49;;;;;;;6.10;4.03;;;8.80;99.90;;;;;;8361075;28;20029;-85
2023/10/05 07:23:50;;;;;;;8.88;5.65;;;9.10;99.90;;;;;;8356739;28;20028;-85
2023/10/05 07:27:51;;;;;;;7.55;5.10;;;9.70;99.90;;;;;;8347864;28;20478;-85
2023/10/05 07:31:51;;;;;;;9.38;5.47;;;9.70;99.90;;;;;;8344411;28;20071;-85
2023/10/05 07:35:55;;;;;;;7.40;4.65;;;9.70;99.90;;;;;;8343864;28;20027;-85
2023/10/05 07:39:55;;;;;;;7.13;4.47;;;9.70;99.90;;;;;;8354053;28;20029;-85
2023/10/05 07:43:56;;;;;;;5.15;3.72;;;9.70;99.90;;;;;;8351321;28;20417;-85
2023/10/05 07:47:58;;;;;;;5.88;4.10;;;9.80;99.90;;;;;;8343177;28;20036;-85
2023/10/05 07:51:59;;;;;;;7.32;4.70;;;9.90;99.90;;;;;;8347826;28;20021;-85
2023/10/05 07:55:59;;;;;;;8.70;5.07;;;10.80;99.90;;;;;;8334785;28;20605;-85
2023/10/05 08:00:00;;;;;;;6.18;4.68;;;11.60;99.90;;;;;;8350570;28;20104;-85
2023/10/05 08:04:00;;;;;;;8.68;4.72;;;12.20;99.90;;;;;;8360810;28;20029;-86
2023/10/05 08:08:02;;;;;;;10.35;6.38;;;12.50;99.90;;;;;;8361189;28;20378;-86
2023/10/05 08:12:04;;;;;;;6.47;5.03;;;12.90;99.90;;;;;;8361445;28;20027;-85
2023/10/05 08:16:07;;;;;;;8.25;5.40;;;13.10;99.90;;;;;;8365604;28;20036;-85
2023/10/05 08:20:08;;;;;;;8.38;5.53;;;13.30;99.90;;;;;;8365592;28;20024;-85
2023/10/05 08:24:09;;;;;;;9.65;5.47;;;13.30;99.90;;;;;;8357708;28;20037;-86
2023/10/05 08:28:10;;;;;;;7.15;5.43;;;13.10;99.90;;;;;;8367318;28;20401;-85
2023/10/05 08:32:14;;;;;;;8.70;5.43;;;12.70;99.90;;;;;;8358047;28;20063;-85
2023/10/05 08:36:17;;;;;;;8.85;5.80;;;12.70;99.90;;;;;;8357252;28;20028;-85
2023/10/05 08:44:48;;;;;;;9.45;5.63;;;13.30;99.90;;;;;;8352993;28;20052;-85
2023/10/05 08:48:49;;;;;;;7.70;4.90;;;13.70;99.90;;;;;;8353063;28;20024;-85
2023/10/05 08:52:50;;;;;;;7.50;4.97;;;14.40;99.90;;;;;;8379795;28;20488;-86
2023/10/05 08:56:52;;;;;;;7.80;5.03;;;14.90;99.90;;;;;;8364281;28;20040;-85
2023/10/05 09:00:52;;;;;;;6.55;4.57;;;15.20;99.90;;;;;;8344041;28;20120;-85
2023/10/05 09:04:59;;;;;;;6.95;4.60;;;15.30;99.90;;;;;;8360368;28;20033;-85
2023/10/05 09:13:12;;;;;;;7.13;4.60;;;16.30;99.90;;;;;;8366991;28;20154;-86
2023/10/05 09:17:16;;;;;;;10.95;5.55;;;16.60;99.90;;;;;;8356111;28;20037;-87
2023/10/05 09:21:19;;;;;;;8.85;4.95;;;16.80;99.90;;;;;;8348512;28;20025;-85
2023/10/05 09:25:27;;;;;;;6.43;4.50;;;16.70;99.90;;;;;;8354861;28;20734;-86
2023/10/05 09:29:28;;;;;;;6.53;4.22;;;16.80;99.90;;;;;;8363768;28;20017;-86
2023/10/05 09:33:34;;;;;;;6.80;4.22;;;17.40;99.90;;;;;;8354659;28;20025;-86
2023/10/05 09:37:39;;;;;;;7.22;4.15;;;17.60;99.90;;;;;;8357167;28;20116;-86
2023/10/05 09:41:40;;;;;;;8.60;4.32;;;17.20;99.90;;;;;;8355901;28;20028;-87
2023/10/05 09:45:43;;;;;;;7.07;4.20;;;16.80;99.90;;;;;;8354750;28;20056;-86
2023/10/05 09:49:45;;;;;;;8.00;4.38;;;17.00;99.90;;;;;;8334836;28;20017;-86
2023/10/05 09:53:51;;;;;;;8.60;4.13;;;17.90;99.90;;;;;;8348691;28;20013;-86
2023/10/05 09:57:56;;;;;;;6.68;4.30;;;18.80;99.90;;;;;;8334750;28;20406;-85
2023/10/05 10:01:57;;;;;;;7.57;3.72;;;19.10;99.90;;;;;;8351529;28;20082;-86
2023/10/05 10:06:09;;;;;;;6.43;3.70;;;19.30;99.90;;;;;;8354231;28;20029;-86
2023/10/05 10:10:11;;;;;;;6.22;3.60;;;19.50;99.90;;;;;;8364263;28;20047;-86
2023/10/05 10:14:18;;;;;;;6.88;3.45;;;19.40;99.90;;;;;;8362155;28;20546;-87
2023/10/05 10:18:30;;;;;;;5.25;3.47;;;19.50;99.90;;;;;;8364432;28;20035;-86
2023/10/05 10:22:47;;;;;;;5.72;3.55;;;19.70;99.90;;;;;;8346179;28;20061;-86
2023/10/05 10:27:15;;;;;;;5.13;3.30;;;19.70;99.90;;;;;;8363346;28;20078;-86
2023/10/05 10:31:30;;;;;;;10.00;5.85;;;19.70;99.90;;;;;;8346286;28;20031;-86
2023/10/05 10:35:32;;;;;;;14.75;3.78;;;19.80;99.90;;;;;;8363342;28;20021;-87
2023/10/05 10:39:33;;;;;;;5.88;3.38;;;20.00;99.90;;;;;;8350927;28;20032;-87
2023/10/05 10:43:34;;;;;;;5.35;3.17;;;20.30;99.90;;;;;;8353167;28;20112;-87
2023/10/05 10:47:39;;;;;;;5.47;3.33;;;20.00;99.90;;;;;;8342504;28;20033;-86
2023/10/05 10:51:41;;;;;;;5.75;3.15;;;19.30;99.90;;;;;;8331210;28;20017;-86
2023/10/05 10:55:51;;;;;;;6.90;3.00;;;19.50;99.90;;;;;;8362667;28;20053;-87
2023/10/05 11:00:18;;;;;;;6.33;3.03;;;20.00;99.90;;;;;;8362856;28;20489;-87
2023/10/05 11:04:23;;;;;;;6.53;3.42;;;20.60;99.90;;;;;;8361108;28;20045;-88
2023/10/05 11:08:30;;;;;;;5.10;2.78;;;20.80;99.90;;;;;;8337112;28;20040;-87
2023/10/05 11:12:42;;;;;;;3.85;2.45;;;21.00;99.90;;;;;;8351090;28;20055;-87
2023/10/05 11:16:45;;;;;;;9.35;3.97;;;21.10;99.90;;;;;;8352568;28;20052;-87
2023/10/05 11:20:52;;;;;;;5.40;2.30;;;21.30;99.90;;;;;;8349062;28;20028;-87
2023/10/05 11:25:15;;;;;;;4.32;1.80;;;20.70;99.90;;;;;;8349785;28;20029;-87
2023/10/05 11:29:17;;;;;;;3.75;2.17;;;19.90;99.90;;;;;;8351455;28;20021;-87
2023/10/05 11:33:18;;;;;;;3.30;1.92;;;19.70;99.90;;;;;;8343626;28;20158;-87
2023/10/05 11:37:19;;;;;;;3.92;2.10;;;20.40;99.90;;;;;;8340396;28;20485;-87
2023/10/05 11:41:23;;;;;;;4.65;2.30;;;21.20;99.90;;;;;;8344052;28;20401;-87
2023/10/05 11:45:24;;;;;;;3.38;2.05;;;21.10;99.90;;;;;;8351338;28;20025;-87
2023/10/05 11:49:30;;;;;;;5.22;2.30;;;21.10;99.90;;;;;;8335622;28;20097;-88
2023/10/05 11:53:31;;;;;;;4.18;2.22;;;21.50;99.90;;;;;;8336781;28;20021;-87
2023/10/05 11:57:32;;;;;;;3.78;2.15;;;22.00;99.90;;;;;;8342641;28;20040;-87
2023/10/05 12:01:33;;;;;;;3.75;2.10;;;21.90;99.90;;;;;;8360627;28;20025;-87
2023/10/05 12:05:34;;;;;;;5.43;2.10;;;21.50;99.90;;;;;;8349794;28;20038;-87
2023/10/05 12:09:36;;;;;;;5.03;2.05;;;21.10;99.90;;;;;;8360555;28;20628;-87
2023/10/05 12:13:38;;;;;;;3.95;1.90;;;21.10;99.90;;;;;;8345587;28;20162;-87
2023/10/05 12:17:44;;;;;;;4.85;1.90;;;20.60;99.90;;;;;;8350706;28;20055;-87
2023/10/05 12:21:47;;;;;;;4.00;1.77;;;20.40;99.90;;;;;;8343094;28;20033;-87
2023/10/05 12:25:48;;;;;;;2.92;1.85;;;20.10;99.90;;;;;;8353897;28;20069;-87
2023/10/05 12:29:48;;;;;;;3.42;1.77;;;20.10;99.90;;;;;;8346413;28;20120;-87
2023/10/05 12:33:50;;;;;;;3.10;1.70;;;20.10;99.90;;;;;;8348371;28;20504;-86
2023/10/05 12:37:52;;;;;;;3.15;1.63;;;20.00;99.90;;;;;;8358841;28;20029;-87
2023/10/05 12:41:54;;;;;;;3.17;1.65;;;20.40;99.90;;;;;;8343212;28;20033;-90
2023/10/05 12:45:56;;;;;;;4.60;1.83;;;20.20;99.90;;;;;;8340758;28;20052;-88
2023/10/05 12:49:56;;;;;;;4.40;1.80;;;20.20;99.90;;;;;;8341121;28;20033;-88
2023/10/05 12:53:57;;;;;;;2.85;1.70;;;20.40;99.90;;;;;;8340995;28;20029;-88
2023/10/05 12:57:58;;;;;;;2.60;1.70;;;20.20;99.90;;;;;;8340705;28;20401;-88
2023/10/05 13:02:03;;;;;;;6.38;1.85;;;19.80;99.90;;;;;;8340110;28;20033;-87
2023/10/05 13:06:10;;;;;;;2.33;1.48;;;19.80;99.90;;;;;;8348929;28;20021;-88
2023/10/05 13:10:21;;;;;;;2.85;1.55;;;20.10;99.90;;;;;;8349643;28;20022;-88
2023/10/05 13:14:21;;;;;;;3.83;1.80;;;19.90;99.90;;;;;;8341706;28;20550;-89
2023/10/05 13:18:25;;;;;;;6.70;1.80;;;19.70;99.90;;;;;;8348479;28;20053;-88
2023/10/05 13:22:26;;;;;;;5.15;1.73;;;19.70;99.90;;;;;;8352255;28;20032;-88
2023/10/05 13:26:28;;;;;;;6.05;2.08;;;19.80;99.90;;;;;;8348372;28;20449;-88
2023/10/05 13:30:40;;;;;;;2.42;1.55;;;19.50;99.90;;;;;;8348351;28;20025;-88
2023/10/05 13:34:45;;;;;;;4.38;1.73;;;19.50;99.90;;;;;;8342321;28;20028;-87
2023/10/05 13:38:46;;;;;;;12.00;7.63;;;19.00;99.90;;;;;;8353965;28;20020;-86
2023/10/05 13:42:47;;;;;;;2.60;1.50;;;18.80;99.90;;;;;;8390505;28;20013;-88
2023/10/05 13:46:48;;;;;;;2.85;1.63;;;18.30;99.90;;;;;;8360735;28;20029;-88
2023/10/05 13:50:49;;;;;;;5.03;1.50;;;18.30;99.90;;;;;;8345105;28;20075;-88
2023/10/05 13:54:52;;;;;;;2.92;1.60;;;18.30;99.90;;;;;;8345708;28;20075;-88
2023/10/05 13:58:57;;;;;;;3.35;1.75;;;18.30;99.90;;;;;;8347224;28;20016;-87
2023/10/05 14:03:02;;;;;;;4.22;1.70;;;18.00;99.90;;;;;;8364860;28;20017;-88
2023/10/05 14:07:06;;;;;;;3.17;2.00;;;18.10;99.90;;;;;;8348107;28;20017;-88
2023/10/05 14:11:09;;;;;;;3.55;1.75;;;18.00;99.90;;;;;;8347211;28;20485;-88
2023/10/05 14:15:10;;;;;;;3.45;1.90;;;17.80;99.90;;;;;;8364171;28;20024;-88
2023/10/05 14:19:11;;;;;;;3.15;1.45;;;17.70;99.90;;;;;;8346731;28;20032;-89
2023/10/05 14:23:12;;;;;;;3.50;1.70;;;17.70;99.90;;;;;;8345781;28;20032;-88
2023/10/05 14:27:13;;;;;;;3.60;1.80;;;17.60;99.90;;;;;;8345389;28;20021;-88
2023/10/05 14:31:15;;;;;;;4.18;1.30;;;17.50;99.90;;;;;;8353661;28;20094;-88
2023/10/05 14:35:18;;;;;;;3.65;1.60;;;17.40;99.90;;;;;;8354197;28;20043;-88
2023/10/05 14:39:21;;;;;;;2.97;1.77;;;16.90;99.90;;;;;;8353727;28;20029;-88
2023/10/05 14:43:30;;;;;;;2.58;1.50;;;17.00;99.90;;;;;;8346949;28;20028;-88
2023/10/05 14:47:31;;;;;;;4.13;1.80;;;16.80;99.90;;;;;;8346875;28;20025;-89
2023/10/05 14:51:31;;;;;;;2.80;1.42;;;16.50;99.90;;;;;;8338329;28;20013;-87
2023/10/05 14:55:32;;;;;;;4.60;1.55;;;16.70;99.90;;;;;;8341077;28;20044;-88
2023/10/05 14:59:33;;;;;;;4.90;1.88;;;16.80;99.90;;;;;;8362177;28;20070;-88
2023/10/05 15:03:37;;;;;;;2.92;1.50;;;16.20;99.90;;;;;;8347985;28;20052;-88
2023/10/05 15:07:40;;;;;;;2.80;1.70;;;16.30;99.90;;;;;;8347622;28;20024;-88
2023/10/05 15:11:40;;;;;;;2.30;1.58;;;16.40;99.90;;;;;;8362392;28;20481;-87
2023/10/05 15:15:41;;;;;;;5.10;1.60;;;16.40;99.90;;;;;;8345682;28;20033;-87
2023/10/05 15:19:42;;;;;;;4.88;2.28;;;15.90;99.90;;;;;;8352989;28;20033;-87
2023/10/05 15:23:43;;;;;;;13.88;7.88;;;15.60;99.90;;;;;;8346559;28;20036;-87
2023/10/05 15:27:43;;;;;;;8.82;5.32;;;15.40;99.90;;;;;;8346901;28;20033;-88
2023/10/05 15:31:44;;;;;;;5.07;3.00;;;15.50;99.90;;;;;;8347080;28;20060;-88
2023/10/05 15:35:45;;;;;;;4.22;2.10;;;15.50;99.90;;;;;;8352800;28;20044;-87
2023/10/05 15:39:46;;;;;;;5.15;2.53;;;15.80;99.90;;;;;;8349919;28;20095;-86
2023/10/05 15:43:46;;;;;;;4.43;2.13;;;15.30;99.90;;;;;;8349799;28;20029;-87
2023/10/05 15:47:48;;;;;;;4.75;1.70;;;15.10;99.90;;;;;;8345199;28;20433;-87
2023/10/05 15:51:49;;;;;;;4.03;1.80;;;15.00;99.90;;;;;;8335573;28;20017;-87
2023/10/05 15:55:49;;;;;;;4.38;2.17;;;15.10;99.90;;;;;;8332934;28;20067;-87
2023/10/05 15:59:50;;;;;;;2.75;1.60;;;14.80;99.90;;;;;;8356747;28;20024;-87
2023/10/05 16:03:51;;;;;;;3.63;1.90;;;15.10;99.90;;;;;;8349806;28;20025;-87
2023/10/05 16:07:55;;;;;;;4.85;1.90;;;14.80;99.90;;;;;;8362501;28;20029;-86
2023/10/05 16:11:57;;;;;;;4.10;1.90;;;14.60;99.90;;;;;;8343781;28;20025;-86
2023/10/05 16:15:58;;;;;;;5.75;2.25;;;14.90;99.90;;;;;;8344109;28;20390;-87
2023/10/05 16:19:59;;;;;;;3.58;2.10;;;14.70;99.90;;;;;;8340394;28;20040;-87
2023/10/05 16:24:03;;;;;;;4.25;1.98;;;14.60;99.90;;;;;;8340364;28;20029;-88
2023/10/05 16:28:07;;;;;;;6.25;2.50;;;14.40;99.90;;;;;;8343295;28;20035;-87
2023/10/05 16:32:23;;;;;;;4.38;2.38;;;14.20;99.90;;;;;;8349465;28;20100;-87
2023/10/05 16:36:23;;;;;;;3.90;1.80;;;14.00;99.90;;;;;;8350672;28;20021;-87
2023/10/05 16:40:24;;;;;;;5.38;2.13;;;14.00;99.90;;;;;;8352426;28;20083;-87
2023/10/05 16:44:24;;;;;;;4.18;2.00;;;13.60;99.90;;;;;;8348684;28;20064;-88
2023/10/05 16:48:26;;;;;;;3.90;1.77;;;13.30;99.90;;;;;;8353547;28;20025;-87
2023/10/05 16:52:27;;;;;;;5.00;1.98;;;12.80;99.90;;;;;;8345995;28;20028;-87
2023/10/05 16:56:28;;;;;;;9.23;4.45;;;12.90;99.90;;;;;;8352302;28;20609;-90
2023/10/05 17:00:29;;;;;;;9.93;3.88;;;13.20;99.90;;;;;;8340799;28;20045;-88
2023/10/05 17:05:30;;;;;;;6.63;2.70;;;13.20;99.90;;;;;;8355938;28;20056;-88
2023/10/05 17:19:58;;;;;;;7.68;4.82;;;12.50;99.90;;;;;;8552100;22;20069;-85
2023/10/05 17:23:58;;;;;;;7.20;2.90;;;12.30;99.90;;;;;;8323352;28;20708;-84
2023/10/05 17:28:00;;;;;;;7.68;3.38;;;12.50;99.90;;;;;;8325940;28;20079;-85
2023/10/05 17:32:03;;;;;;;4.90;2.95;;;12.30;99.90;;;;;;8325645;28;20018;-85
2023/10/05 17:36:10;;;;;;;5.65;2.78;;;12.10;99.90;;;;;;8317733;28;20033;-85
2023/10/05 17:40:22;;;;;;;5.28;2.50;;;11.90;99.90;;;;;;8337392;28;20022;-84
2023/10/05 17:44:24;;;;;;;4.97;2.50;;;11.60;99.90;;;;;;8332632;28;20029;-85
2023/10/05 17:48:25;;;;;;;8.07;2.65;;;11.70;99.90;;;;;;8333718;28;20032;-85
2023/10/05 17:52:27;;;;;;;4.75;2.40;;;11.50;99.90;;;;;;8329331;28;20426;-85
2023/10/05 17:56:30;;;;;;;4.65;2.38;;;11.10;99.90;;;;;;8330234;28;23141;-85
2023/10/05 18:00:54;;;;;;;5.50;2.42;;;10.90;99.90;;;;;;8334652;28;20021;-85
2023/10/05 18:05:37;;;;;;;;;;;;;;;;;;;;;
2023/10/05 18:14:54;;;;;;;6.38;2.97;;;10.70;99.90;;;;;;8181530;29;20047;-86
2023/10/05 18:23:22;;;;;;;7.25;2.83;;;10.40;99.90;;;;;;8173809;29;20054;-85
2023/10/05 18:27:26;;;;;;;12.23;3.42;;;10.40;99.90;;;;;;8202155;29;20078;-85
2023/10/05 18:31:35;;;;;;;9.38;4.03;;;10.40;99.90;;;;;;8184205;29;20035;-85
2023/10/05 18:35:36;;;;;;;9.73;4.32;;;10.40;99.90;;;;;;8313630;28;20037;-85
2023/10/05 18:40:03;;;;;;;;;;;;;;;;;;;;;
2023/10/05 18:44:31;;;;;;;8.70;4.43;;;10.20;99.90;;;;;;8329019;28;20030;-86
2023/10/05 18:48:37;;;;;;;7.88;3.78;;;10.10;99.90;;;;;;8192875;28;20035;-84
2023/10/05 18:52:38;;;;;;;6.47;3.58;;;10.00;99.90;;;;;;8200652;28;20035;-86
2023/10/05 18:56:39;;;;;;;6.15;3.67;;;10.00;99.90;;;;;;8194706;28;20027;-84
2023/10/05 19:01:14;;;;;;;9.07;3.97;;;10.00;99.90;;;;;;8197038;28;20074;-87
2023/10/05 19:19:01;;;;;;;6.28;3.15;;;10.00;99.90;;;;;;8336289;28;20025;-86
2023/10/05 19:28:32;;;;;;;7.93;3.15;;;10.00;99.90;;;;;;8255479;28;20521;-86
2023/10/05 19:37:36;;;;;;;6.78;3.22;;;9.70;99.90;;;;;;8138557;29;20044;-86
2023/10/05 19:41:37;;;;;;;6.60;3.72;;;9.60;99.90;;;;;;8197200;28;20093;-86
2023/10/05 19:45:38;;;;;;;7.70;3.72;;;9.40;99.90;;;;;;8323065;28;20047;-85
2023/10/05 19:49:41;;;;;;;7.22;3.28;;;9.40;99.90;;;;;;8340336;28;20033;-84
2023/10/05 19:58:32;;;;;;;14.63;9.68;;;9.30;99.90;;;;;;8280525;28;20029;-84
2023/10/05 20:02:42;;;;;;;13.68;9.27;;;9.30;99.90;;;;;;8358423;28;20028;-86
2023/10/05 20:07:10;;;;;;;15.90;8.50;;;9.30;99.90;;;;;;8340102;28;20032;-86
2023/10/05 20:11:39;;;;;;;7.50;3.65;;;9.20;99.90;;;;;;8345331;28;20051;-85
2023/10/05 20:16:45;;;;;;;5.90;3.22;;;9.30;99.90;;;;;;8340133;28;20082;-86
2023/10/05 20:21:04;;;;;;;6.88;3.95;;;8.80;99.90;;;;;;8350049;28;20521;-86
2023/10/05 20:25:12;;;;;;;6.70;3.80;;;9.00;99.90;;;;;;8349380;28;20025;-87
2023/10/05 20:29:12;;;;;;;8.93;3.75;;;9.50;99.90;;;;;;8343056;28;20485;-86
2023/10/05 20:33:13;;;;;;;9.85;6.18;;;8.90;99.90;;;;;;8348867;28;20021;-86
2023/10/05 20:37:13;;;;;;;8.65;4.68;;;8.80;99.90;;;;;;8359181;28;20028;-85
2023/10/05 20:41:14;;;;;;;4.55;3.05;;;8.80;99.90;;;;;;8366174;28;20501;-81
2023/10/05 20:45:15;;;;;;;8.23;3.72;;;8.80;99.90;;;;;;8372146;28;20025;-82
2023/10/05 20:49:15;;;;;;;7.63;3.78;;;8.70;99.90;;;;;;8358829;28;20048;-83
2023/10/05 20:53:19;;;;;;;6.10;3.40;;;8.50;99.90;;;;;;8369369;28;20062;-83
2023/10/05 20:57:19;;;;;;;6.50;3.33;;;8.40;99.90;;;;;;8359638;28;20036;-83
2023/10/05 21:01:20;;;;;;;7.97;4.50;;;8.30;99.90;;;;;;8355461;28;20021;-83
2023/10/05 21:05:21;;;;;;;6.95;4.30;;;8.10;99.90;;;;;;8351287;28;20508;-83
2023/10/05 21:09:22;;;;;;;7.13;3.20;;;8.00;99.90;;;;;;8355890;28;20031;-83
2023/10/05 21:13:22;;;;;;;9.00;3.58;;;7.90;99.90;;;;;;8350880;28;20108;-83
2023/10/05 21:17:23;;;;;;;7.97;3.55;;;8.00;99.90;;;;;;8346717;28;20036;-84
2023/10/05 21:21:24;;;;;;;7.95;3.67;;;7.90;99.90;;;;;;8348082;28;20036;-84
2023/10/05 21:25:26;;;;;;;7.55;3.80;;;7.80;99.90;;;;;;8338611;28;20488;-83
2023/10/05 21:29:26;;;;;;;7.32;4.15;;;7.70;99.90;;;;;;8372939;28;20017;-84
2023/10/05 21:33:27;;;;;;;6.68;3.63;;;7.60;99.90;;;;;;8343790;28;20090;-83
2023/10/05 21:37:28;;;;;;;8.00;3.40;;;7.50;99.90;;;;;;8341298;28;20037;-83
2023/10/05 21:41:29;;;;;;;6.78;3.78;;;7.40;99.90;;;;;;8347111;28;20497;-84
2023/10/05 21:45:29;;;;;;;7.25;3.10;;;7.30;99.90;;;;;;8346523;28;20032;-84
2023/10/05 21:49:30;;;;;;;6.53;3.30;;;7.20;99.90;;;;;;8360070;28;20411;-83
2023/10/05 21:53:30;;;;;;;4.88;2.92;;;7.20;99.90;;;;;;8363282;28;20029;-83
2023/10/05 21:57:31;;;;;;;4.65;2.75;;;7.10;99.90;;;;;;8373759;28;20492;-85
2023/10/05 22:01:32;;;;;;;7.78;3.05;;;7.00;99.90;;;;;;8343461;28;20033;-82
2023/10/05 22:05:37;;;;;;;5.45;3.08;;;6.80;99.90;;;;;;8347967;28;20029;-85
2023/10/05 22:09:39;;;;;;;7.43;3.17;;;6.70;99.90;;;;;;8338411;28;20025;-83
2023/10/05 22:13:40;;;;;;;7.00;3.40;;;6.60;99.90;;;;;;8361429;28;20032;-84
2023/10/05 22:17:41;;;;;;;4.93;2.88;;;6.80;99.90;;;;;;8346561;28;20405;-84
2023/10/05 22:21:41;;;;;;;4.20;2.80;;;6.80;99.90;;;;;;8339378;28;20025;-85